sensor_id;sensor_type;location;lat;lon;timestamp;pressure;altitude;pressure_sealevel;temperature;humidity
6565;BME280;3316;44.118;27.258;2023-06-04T00:01:35;101460.44;;;18.57;71.57
6565;BME280;3316;44.118;27.258;2023-06-04T00:04:01;101457.53;;;18.65;71.22
6565;BME280;3316;44.118;27.258;2023-06-04T00:06:26;101461.38;;;18.56;71.50
6565;BME280;3316;44.118;27.258;2023-06-04T00:08:51;101462.97;;;18.62;71.66
6565;BME280;3316;44.118;27.258;2023-06-04T00:11:17;101456.44;;;18.41;73.24
6565;BME280;3316;44.118;27.258;2023-06-04T00:13:42;101462.25;;;18.55;73.61
6565;BME280;3316;44.118;27.258;2023-06-04T00:16:08;101451.94;;;18.45;74.38
6565;BME280;3316;44.118;27.258;2023-06-04T00:18:33;101451.94;;;18.45;74.90
6565;BME280;3316;44.118;27.258;2023-06-04T00:20:59;101437.75;;;18.44;75.32
6565;BME280;3316;44.118;27.258;2023-06-04T00:23:24;101418.50;;;18.33;74.88
6565;BME280;3316;44.118;27.258;2023-06-04T00:25:49;101465.75;;;18.57;74.36
6565;BME280;3316;44.118;27.258;2023-06-04T00:28:15;101445.31;;;18.58;74.90
6565;BME280;3316;44.118;27.258;2023-06-04T00:30:41;101458.31;;;18.68;74.87
6565;BME280;3316;44.118;27.258;2023-06-04T00:33:06;101476.06;;;18.70;74.09
6565;BME280;3316;44.118;27.258;2023-06-04T00:35:32;101464.50;;;18.69;74.54
6565;BME280;3316;44.118;27.258;2023-06-04T00:37:58;101469.84;;;18.69;74.83
6565;BME280;3316;44.118;27.258;2023-06-04T00:40:23;101453.25;;;18.59;74.85
6565;BME280;3316;44.118;27.258;2023-06-04T00:42:49;101470.84;;;18.67;75.50
6565;BME280;3316;44.118;27.258;2023-06-04T00:45:15;101456.63;;;18.66;76.44
6565;BME280;3316;44.118;27.258;2023-06-04T00:47:43;101465.56;;;18.63;76.55
6565;BME280;3316;44.118;27.258;2023-06-04T00:50:09;101425.66;;;18.31;77.72
6565;BME280;3316;44.118;27.258;2023-06-04T00:52:35;101431.19;;;18.25;77.41
6565;BME280;3316;44.118;27.258;2023-06-04T00:55:01;101461.78;;;18.43;77.02
6565;BME280;3316;44.118;27.258;2023-06-04T00:57:27;101467.09;;;18.41;77.13
6565;BME280;3316;44.118;27.258;2023-06-04T00:59:53;101462.75;;;18.39;77.46
6565;BME280;3316;44.118;27.258;2023-06-04T01:02:21;101469.91;;;18.37;78.23
6565;BME280;3316;44.118;27.258;2023-06-04T01:07:55;101437.34;;;17.95;78.45
6565;BME280;3316;44.118;27.258;2023-06-04T01:10:21;101448.50;;;18.09;79.61
6565;BME280;3316;44.118;27.258;2023-06-04T01:12:47;101402.28;;;17.79;78.43
6565;BME280;3316;44.118;27.258;2023-06-04T01:15:15;101452.91;;;18.10;79.75
6565;BME280;3316;44.118;27.258;2023-06-04T01:17:43;101453.56;;;18.18;80.37
6565;BME280;3316;44.118;27.258;2023-06-04T01:25:15;101470.69;;;18.10;78.15
6565;BME280;3316;44.118;27.258;2023-06-04T01:27:48;101477.91;;;18.05;78.37
6565;BME280;3316;44.118;27.258;2023-06-04T01:30:15;101480.59;;;18.05;79.77
6565;BME280;3316;44.118;27.258;2023-06-04T01:32:41;101475.56;;;17.94;80.38
6565;BME280;3316;44.118;27.258;2023-06-04T01:35:08;101476.41;;;17.96;80.82
6565;BME280;3316;44.118;27.258;2023-06-04T01:37:35;101472.81;;;17.97;82.30
6565;BME280;3316;44.118;27.258;2023-06-04T01:40:01;101471.75;;;18.03;83.13
6565;BME280;3316;44.118;27.258;2023-06-04T01:42:26;101476.03;;;18.10;84.33
6565;BME280;3316;44.118;27.258;2023-06-04T01:44:52;101479.53;;;18.12;84.32
6565;BME280;3316;44.118;27.258;2023-06-04T01:47:17;101473.53;;;18.04;83.91
6565;BME280;3316;44.118;27.258;2023-06-04T01:49:42;101479.53;;;18.12;85.35
6565;BME280;3316;44.118;27.258;2023-06-04T01:52:08;101484.84;;;18.10;85.69
6565;BME280;3316;44.118;27.258;2023-06-04T01:54:33;101488.34;;;18.12;85.33
6565;BME280;3316;44.118;27.258;2023-06-04T01:56:59;101477.69;;;18.12;84.62
6565;BME280;3316;44.118;27.258;2023-06-04T01:59:24;101473.75;;;17.95;84.53
6565;BME280;3316;44.118;27.258;2023-06-04T02:01:50;101446.66;;;17.79;84.87
6565;BME280;3316;44.118;27.258;2023-06-04T02:04:16;101489.63;;;17.99;84.96
6565;BME280;3316;44.118;27.258;2023-06-04T02:06:41;101495.06;;;17.95;85.35
6565;BME280;3316;44.118;27.258;2023-06-04T02:09:06;101490.88;;;17.86;84.23
6565;BME280;3316;44.118;27.258;2023-06-04T02:11:32;101495.31;;;17.86;84.57
6565;BME280;3316;44.118;27.258;2023-06-04T02:13:57;101496.19;;;17.86;85.17
6565;BME280;3316;44.118;27.258;2023-06-04T02:16:23;101497.41;;;17.74;86.07
6565;BME280;3316;44.118;27.258;2023-06-04T02:18:48;101507.06;;;17.77;85.72
6565;BME280;3316;44.118;27.258;2023-06-04T02:21:14;101500.06;;;17.73;86.50
6565;BME280;3316;44.118;27.258;2023-06-04T02:23:39;101491.53;;;17.60;86.20
6565;BME280;3316;44.118;27.258;2023-06-04T02:26:05;101498.44;;;17.69;86.52
6565;BME280;3316;44.118;27.258;2023-06-04T02:28:31;101507.22;;;17.71;86.15
6565;BME280;3316;44.118;27.258;2023-06-04T02:30:56;101499.31;;;17.68;87.16
6565;BME280;3316;44.118;27.258;2023-06-04T02:33:22;101499.53;;;17.60;87.37
6565;BME280;3316;44.118;27.258;2023-06-04T02:35:47;101522.66;;;17.58;88.24
6565;BME280;3316;44.118;27.258;2023-06-04T02:38:13;101524.50;;;17.55;88.75
6565;BME280;3316;44.118;27.258;2023-06-04T02:40:38;101530.88;;;17.46;89.56
6565;BME280;3316;44.118;27.258;2023-06-04T02:43:04;101530.00;;;17.46;88.84
6565;BME280;3316;44.118;27.258;2023-06-04T02:45:30;101535.41;;;17.43;88.70
6565;BME280;3316;44.118;27.258;2023-06-04T02:47:55;101527.44;;;17.43;90.11
6565;BME280;3316;44.118;27.258;2023-06-04T02:50:21;101530.00;;;17.46;89.83
6565;BME280;3316;44.118;27.258;2023-06-04T02:52:46;101525.53;;;17.49;89.02
6565;BME280;3316;44.118;27.258;2023-06-04T02:55:12;101521.72;;;17.59;88.10
6565;BME280;3316;44.118;27.258;2023-06-04T02:57:42;101531.38;;;17.63;87.81
6565;BME280;3316;44.118;27.258;2023-06-04T03:00:09;101529.88;;;17.53;88.45
6565;BME280;3316;44.118;27.258;2023-06-04T03:02:42;101532.41;;;17.58;88.74
6565;BME280;3316;44.118;27.258;2023-06-04T03:05:10;101533.44;;;17.52;89.82
6565;BME280;3316;44.118;27.258;2023-06-04T03:07:37;101535.50;;;17.76;89.52
6565;BME280;3316;44.118;27.258;2023-06-04T03:10:03;101533.38;;;17.89;87.17
6565;BME280;3316;44.118;27.258;2023-06-04T03:12:29;101531.06;;;18.09;85.62
6565;BME280;3316;44.118;27.258;2023-06-04T03:14:55;101537.84;;;18.21;84.57
6565;BME280;3316;44.118;27.258;2023-06-04T03:17:21;101548.22;;;18.31;86.19
6565;BME280;3316;44.118;27.258;2023-06-04T03:19:46;101554.91;;;18.47;85.42
6565;BME280;3316;44.118;27.258;2023-06-04T03:22:13;101559.53;;;18.39;84.06
6565;BME280;3316;44.118;27.258;2023-06-04T03:24:40;101562.44;;;18.30;85.87
6565;BME280;3316;44.118;27.258;2023-06-04T03:27:07;101573.78;;;18.38;85.65
6565;BME280;3316;44.118;27.258;2023-06-04T03:29:33;101555.50;;;18.57;85.38
6565;BME280;3316;44.118;27.258;2023-06-04T03:31:59;101471.38;;;18.48;82.23
6565;BME280;3316;44.118;27.258;2023-06-04T03:34:25;101569.56;;;18.93;81.57
6565;BME280;3316;44.118;27.258;2023-06-04T03:36:54;101577.03;;;19.11;82.47
6565;BME280;3316;44.118;27.258;2023-06-04T03:39:20;101578.09;;;19.34;79.41
6565;BME280;3316;44.118;27.258;2023-06-04T03:41:46;101576.66;;;19.23;79.11
6565;BME280;3316;44.118;27.258;2023-06-04T03:44:13;101573.00;;;18.96;79.79
6565;BME280;3316;44.118;27.258;2023-06-04T03:46:39;101575.50;;;19.02;80.09
6565;BME280;3316;44.118;27.258;2023-06-04T03:49:05;101574.03;;;18.92;80.18
6565;BME280;3316;44.118;27.258;2023-06-04T03:51:30;101583.25;;;19.10;79.67
6565;BME280;3316;44.118;27.258;2023-06-04T03:53:57;101553.06;;;19.38;78.36
6565;BME280;3316;44.118;27.258;2023-06-04T03:56:23;101590.50;;;19.63;76.24
6565;BME280;3316;44.118;27.258;2023-06-04T03:58:48;101581.34;;;19.72;74.43
6565;BME280;3316;44.118;27.258;2023-06-04T04:01:15;101592.47;;;19.84;73.43
6565;BME280;3316;44.118;27.258;2023-06-04T04:03:40;101593.34;;;19.85;73.74
6565;BME280;3316;44.118;27.258;2023-06-04T04:06:09;101589.06;;;19.53;73.93
6565;BME280;3316;44.118;27.258;2023-06-04T04:08:35;101599.09;;;19.45;76.62
6565;BME280;3316;44.118;27.258;2023-06-04T04:11:02;101595.41;;;19.77;76.18
6565;BME280;3316;44.118;27.258;2023-06-04T04:13:28;101602.59;;;20.27;74.00
6565;BME280;3316;44.118;27.258;2023-06-04T04:15:53;101589.06;;;20.05;74.58
6565;BME280;3316;44.118;27.258;2023-06-04T04:18:22;101605.50;;;20.21;74.06
6565;BME280;3316;44.118;27.258;2023-06-04T04:20:47;101605.41;;;20.24;71.72
6565;BME280;3316;44.118;27.258;2023-06-04T04:23:13;101590.00;;;20.30;71.81
6565;BME280;3316;44.118;27.258;2023-06-04T04:25:39;101605.63;;;20.67;70.75
6565;BME280;3316;44.118;27.258;2023-06-04T04:28:04;101581.28;;;20.50;69.15
6565;BME280;3316;44.118;27.258;2023-06-04T04:30:36;101621.44;;;20.49;70.56
6565;BME280;3316;44.118;27.258;2023-06-04T04:33:02;101622.41;;;20.46;70.90
6565;BME280;3316;44.118;27.258;2023-06-04T04:35:28;101618.63;;;20.53;70.44
6565;BME280;3316;44.118;27.258;2023-06-04T04:37:54;101627.13;;;20.64;69.89
6565;BME280;3316;44.118;27.258;2023-06-04T04:40:20;101627.72;;;20.48;71.73
6565;BME280;3316;44.118;27.258;2023-06-04T04:42:46;101613.16;;;20.31;72.42
6565;BME280;3316;44.118;27.258;2023-06-04T04:45:11;101632.22;;;20.21;73.43
6565;BME280;3316;44.118;27.258;2023-06-04T04:47:37;101625.34;;;20.40;73.44
6565;BME280;3316;44.118;27.258;2023-06-04T04:50:03;101622.81;;;20.60;72.46
6565;BME280;3316;44.118;27.258;2023-06-04T04:52:29;101626.63;;;20.53;72.99
6565;BME280;3316;44.118;27.258;2023-06-04T04:54:55;101639.78;;;20.84;72.21
6565;BME280;3316;44.118;27.258;2023-06-04T04:57:21;101632.03;;;21.01;71.33
6565;BME280;3316;44.118;27.258;2023-06-04T04:59:47;101630.88;;;21.31;70.26
6565;BME280;3316;44.118;27.258;2023-06-04T05:02:13;101618.94;;;21.61;68.26
6565;BME280;3316;44.118;27.258;2023-06-04T05:04:39;101626.91;;;21.41;67.46
6565;BME280;3316;44.118;27.258;2023-06-04T05:07:05;101638.69;;;21.14;68.55
6565;BME280;3316;44.118;27.258;2023-06-04T05:09:30;101634.84;;;20.72;70.03
6565;BME280;3316;44.118;27.258;2023-06-04T05:11:55;101637.63;;;20.44;72.72
6565;BME280;3316;44.118;27.258;2023-06-04T05:14:21;101636.09;;;20.63;71.74
6565;BME280;3316;44.118;27.258;2023-06-04T05:16:46;101638.13;;;20.30;72.90
6565;BME280;3316;44.118;27.258;2023-06-04T05:19:13;101630.84;;;20.08;74.14
6565;BME280;3316;44.118;27.258;2023-06-04T05:21:39;101613.75;;;19.87;76.19
6565;BME280;3316;44.118;27.258;2023-06-04T05:24:04;101639.91;;;20.04;76.18
6565;BME280;3316;44.118;27.258;2023-06-04T05:26:30;101646.47;;;20.21;76.32
6565;BME280;3316;44.118;27.258;2023-06-04T05:28:55;101617.19;;;20.18;75.44
6565;BME280;3316;44.118;27.258;2023-06-04T05:31:21;101641.03;;;20.24;76.84
6565;BME280;3316;44.118;27.258;2023-06-04T05:33:47;101644.13;;;20.62;76.44
6565;BME280;3316;44.118;27.258;2023-06-04T05:36:13;101632.41;;;20.90;74.09
6565;BME280;3316;44.118;27.258;2023-06-04T05:38:39;101644.13;;;21.34;72.94
6565;BME280;3316;44.118;27.258;2023-06-04T05:41:04;101613.88;;;21.09;72.51
6565;BME280;3316;44.118;27.258;2023-06-04T05:43:29;101632.66;;;21.07;72.65
6565;BME280;3316;44.118;27.258;2023-06-04T05:45:55;101625.63;;;21.28;72.26
6565;BME280;3316;44.118;27.258;2023-06-04T05:48:21;101647.84;;;21.30;71.57
6565;BME280;3316;44.118;27.258;2023-06-04T05:50:46;101650.53;;;21.53;72.31
6565;BME280;3316;44.118;27.258;2023-06-04T05:53:12;101655.81;;;21.99;70.61
6565;BME280;3316;44.118;27.258;2023-06-04T05:55:38;101651.50;;;22.17;68.04
6565;BME280;3316;44.118;27.258;2023-06-04T05:58:03;101656.72;;;22.20;67.31
6565;BME280;3316;44.118;27.258;2023-06-04T06:00:29;101639.06;;;21.71;68.04
6565;BME280;3316;44.118;27.258;2023-06-04T06:02:55;101670.44;;;21.91;69.11
6565;BME280;3316;44.118;27.258;2023-06-04T06:05:20;101654.75;;;22.03;67.06
6565;BME280;3316;44.118;27.258;2023-06-04T06:07:46;101654.94;;;22.41;65.87
6565;BME280;3316;44.118;27.258;2023-06-04T06:10:12;101667.38;;;22.83;63.88
6565;BME280;3316;44.118;27.258;2023-06-04T06:12:38;101648.88;;;22.77;63.72
6565;BME280;3316;44.118;27.258;2023-06-04T06:15:05;101662.19;;;22.39;64.77
6565;BME280;3316;44.118;27.258;2023-06-04T06:17:31;101668.09;;;22.47;65.31
6565;BME280;3316;44.118;27.258;2023-06-04T06:19:58;101680.72;;;22.85;63.34
6565;BME280;3316;44.118;27.258;2023-06-04T06:22:23;101657.84;;;22.56;64.08
6565;BME280;3316;44.118;27.258;2023-06-04T06:24:49;101663.78;;;22.43;64.55
6565;BME280;3316;44.118;27.258;2023-06-04T06:27:15;101667.72;;;22.76;64.18
6565;BME280;3316;44.118;27.258;2023-06-04T06:29:41;101673.13;;;22.94;63.36
6565;BME280;3316;44.118;27.258;2023-06-04T06:32:07;101671.72;;;23.06;61.91
6565;BME280;3316;44.118;27.258;2023-06-04T06:34:33;101670.63;;;23.10;63.11
6565;BME280;3316;44.118;27.258;2023-06-04T06:36:58;101663.91;;;23.20;62.12
6565;BME280;3316;44.118;27.258;2023-06-04T06:39:24;101666.34;;;23.06;62.86
6565;BME280;3316;44.118;27.258;2023-06-04T06:41:49;101670.06;;;23.22;61.58
6565;BME280;3316;44.118;27.258;2023-06-04T06:44:15;101662.03;;;23.41;61.80
6565;BME280;3316;44.118;27.258;2023-06-04T06:46:40;101661.75;;;23.84;59.80
6565;BME280;3316;44.118;27.258;2023-06-04T06:49:06;101668.72;;;24.07;58.20
6565;BME280;3316;44.118;27.258;2023-06-04T06:51:31;101669.94;;;24.35;58.07
6565;BME280;3316;44.118;27.258;2023-06-04T06:53:57;101660.28;;;24.31;57.82
6565;BME280;3316;44.118;27.258;2023-06-04T06:56:22;101666.28;;;24.19;54.82
6565;BME280;3316;44.118;27.258;2023-06-04T06:58:48;101667.53;;;23.94;56.98
6565;BME280;3316;44.118;27.258;2023-06-04T07:01:13;101661.44;;;24.09;56.59
6565;BME280;3316;44.118;27.258;2023-06-04T07:03:39;101652.53;;;24.59;55.11
6565;BME280;3316;44.118;27.258;2023-06-04T07:06:08;101652.75;;;24.89;54.57
6565;BME280;3316;44.118;27.258;2023-06-04T07:08:34;101662.69;;;24.89;53.70
6565;BME280;3316;44.118;27.258;2023-06-04T07:11:01;101669.06;;;24.52;53.15
6565;BME280;3316;44.118;27.258;2023-06-04T07:13:27;101664.06;;;24.44;52.87
6565;BME280;3316;44.118;27.258;2023-06-04T07:15:53;101672.06;;;24.97;53.32
6565;BME280;3316;44.118;27.258;2023-06-04T07:18:18;101662.25;;;24.96;52.77
6565;BME280;3316;44.118;27.258;2023-06-04T07:20:44;101673.25;;;25.41;52.90
6565;BME280;3316;44.118;27.258;2023-06-04T07:23:09;101679.19;;;25.64;49.55
6565;BME280;3316;44.118;27.258;2023-06-04T07:25:35;101671.41;;;25.42;49.00
6565;BME280;3316;44.118;27.258;2023-06-04T07:28:00;101665.31;;;25.38;47.12
6565;BME280;3316;44.118;27.258;2023-06-04T07:30:29;101675.53;;;25.32;47.77
6565;BME280;3316;44.118;27.258;2023-06-04T07:32:57;101670.94;;;25.01;49.07
6565;BME280;3316;44.118;27.258;2023-06-04T07:35:22;101672.28;;;24.77;48.67
6565;BME280;3316;44.118;27.258;2023-06-04T07:37:48;101672.53;;;24.54;49.53
6565;BME280;3316;44.118;27.258;2023-06-04T07:40:15;101669.38;;;24.97;48.04
6565;BME280;3316;44.118;27.258;2023-06-04T07:42:41;101666.13;;;25.08;47.43
6565;BME280;3316;44.118;27.258;2023-06-04T07:45:08;101615.00;;;24.56;47.27
6565;BME280;3316;44.118;27.258;2023-06-04T07:47:37;101628.56;;;24.72;47.83
6565;BME280;3316;44.118;27.258;2023-06-04T07:50:04;101674.19;;;24.75;46.74
6565;BME280;3316;44.118;27.258;2023-06-04T07:52:30;101674.06;;;24.59;45.89
6565;BME280;3316;44.118;27.258;2023-06-04T07:54:56;101662.63;;;24.71;45.46
6565;BME280;3316;44.118;27.258;2023-06-04T07:57:21;101666.94;;;24.76;45.86
6565;BME280;3316;44.118;27.258;2023-06-04T07:59:47;101671.50;;;25.08;45.93
6565;BME280;3316;44.118;27.258;2023-06-04T08:02:12;101663.69;;;25.19;46.19
6565;BME280;3316;44.118;27.258;2023-06-04T08:04:40;101682.84;;;25.63;43.85
6565;BME280;3316;44.118;27.258;2023-06-04T08:07:05;101677.16;;;25.51;44.24
6565;BME280;3316;44.118;27.258;2023-06-04T08:09:31;101675.47;;;25.33;40.90
6565;BME280;3316;44.118;27.258;2023-06-04T08:11:56;101672.41;;;24.74;41.85
6565;BME280;3316;44.118;27.258;2023-06-04T08:14:22;101671.81;;;24.67;42.29
6565;BME280;3316;44.118;27.258;2023-06-04T08:16:48;101674.00;;;24.78;42.93
6565;BME280;3316;44.118;27.258;2023-06-04T08:19:14;101664.56;;;24.35;42.41
6565;BME280;3316;44.118;27.258;2023-06-04T08:21:41;101665.66;;;24.65;42.07
6565;BME280;3316;44.118;27.258;2023-06-04T08:24:08;101669.03;;;25.03;42.20
6565;BME280;3316;44.118;27.258;2023-06-04T08:26:34;101673.59;;;25.18;42.94
6565;BME280;3316;44.118;27.258;2023-06-04T08:29:02;101671.09;;;25.15;42.55
6565;BME280;3316;44.118;27.258;2023-06-04T08:31:29;101672.19;;;25.11;40.11
6565;BME280;3316;44.118;27.258;2023-06-04T08:33:54;101680.69;;;25.04;40.38
6565;BME280;3316;44.118;27.258;2023-06-04T08:36:20;101648.03;;;24.43;42.19
6565;BME280;3316;44.118;27.258;2023-06-04T08:38:45;101668.69;;;24.77;42.08
6565;BME280;3316;44.118;27.258;2023-06-04T08:41:20;101657.25;;;25.06;42.33
6565;BME280;3316;44.118;27.258;2023-06-04T08:43:48;101655.19;;;25.26;40.23
6565;BME280;3316;44.118;27.258;2023-06-04T08:46:15;101663.91;;;25.31;40.33
6565;BME280;3316;44.118;27.258;2023-06-04T08:48:41;101673.63;;;25.67;41.01
6565;BME280;3316;44.118;27.258;2023-06-04T08:51:07;101642.84;;;25.55;41.29
6565;BME280;3316;44.118;27.258;2023-06-04T08:53:36;101678.41;;;25.62;41.24
6565;BME280;3316;44.118;27.258;2023-06-04T08:56:05;101622.91;;;25.42;40.50
6565;BME280;3316;44.118;27.258;2023-06-04T08:58:35;101683.63;;;25.80;41.57
6565;BME280;3316;44.118;27.258;2023-06-04T09:01:01;101682.41;;;26.01;41.16
6565;BME280;3316;44.118;27.258;2023-06-04T09:03:28;101676.38;;;25.81;39.23
6565;BME280;3316;44.118;27.258;2023-06-04T09:06:00;101689.47;;;25.73;40.67
6565;BME280;3316;44.118;27.258;2023-06-04T09:08:31;101673.88;;;26.24;42.01
6565;BME280;3316;44.118;27.258;2023-06-04T09:11:05;101676.78;;;26.35;40.91
6565;BME280;3316;44.118;27.258;2023-06-04T09:13:31;101667.38;;;26.72;39.46
6565;BME280;3316;44.118;27.258;2023-06-04T09:16:01;101677.66;;;26.95;39.42
6565;BME280;3316;44.118;27.258;2023-06-04T09:18:28;101683.16;;;27.08;40.04
6565;BME280;3316;44.118;27.258;2023-06-04T09:21:03;101680.16;;;26.98;39.94
6565;BME280;3316;44.118;27.258;2023-06-04T09:23:29;101676.97;;;26.92;39.82
6565;BME280;3316;44.118;27.258;2023-06-04T09:25:55;101667.34;;;27.16;39.89
6565;BME280;3316;44.118;27.258;2023-06-04T09:28:21;101683.03;;;26.81;41.04
6565;BME280;3316;44.118;27.258;2023-06-04T09:30:53;101662.41;;;26.65;41.21
6565;BME280;3316;44.118;27.258;2023-06-04T09:33:18;101685.34;;;26.58;41.16
6565;BME280;3316;44.118;27.258;2023-06-04T09:35:58;101672.63;;;26.60;40.60
6565;BME280;3316;44.118;27.258;2023-06-04T09:38:34;101674.66;;;26.56;40.30
6565;BME280;3316;44.118;27.258;2023-06-04T09:41:00;101672.44;;;26.92;40.15
6565;BME280;3316;44.118;27.258;2023-06-04T09:43:26;101684.19;;;26.77;41.04
6565;BME280;3316;44.118;27.258;2023-06-04T09:45:51;101671.84;;;26.28;40.00
6565;BME280;3316;44.118;27.258;2023-06-04T09:48:21;101683.09;;;26.20;39.82
6565;BME280;3316;44.118;27.258;2023-06-04T09:50:47;101687.09;;;25.67;40.33
6565;BME280;3316;44.118;27.258;2023-06-04T09:53:13;101670.09;;;25.33;40.42
6565;BME280;3316;44.118;27.258;2023-06-04T09:55:40;101672.47;;;25.39;41.59
6565;BME280;3316;44.118;27.258;2023-06-04T09:58:06;101670.22;;;25.63;41.98
6565;BME280;3316;44.118;27.258;2023-06-04T10:00:33;101666.03;;;26.04;41.43
6565;BME280;3316;44.118;27.258;2023-06-04T10:03:01;101668.16;;;26.15;40.28
6565;BME280;3316;44.118;27.258;2023-06-04T10:05:32;101673.72;;;26.41;40.22
6565;BME280;3316;44.118;27.258;2023-06-04T10:07:58;101641.63;;;26.37;37.53
6565;BME280;3316;44.118;27.258;2023-06-04T10:10:28;101674.81;;;26.23;37.29
6565;BME280;3316;44.118;27.258;2023-06-04T10:13:01;101663.56;;;26.61;38.13
6565;BME280;3316;44.118;27.258;2023-06-04T10:15:30;101659.44;;;26.69;37.48
6565;BME280;3316;44.118;27.258;2023-06-04T10:17:58;101658.22;;;26.00;38.68
6565;BME280;3316;44.118;27.258;2023-06-04T10:20:25;101661.34;;;25.77;38.96
6565;BME280;3316;44.118;27.258;2023-06-04T10:22:51;101670.88;;;26.44;38.73
6565;BME280;3316;44.118;27.258;2023-06-04T10:25:18;101671.28;;;26.96;37.21
6565;BME280;3316;44.118;27.258;2023-06-04T10:27:43;101663.56;;;27.47;35.72
6565;BME280;3316;44.118;27.258;2023-06-04T10:30:09;101651.94;;;27.73;36.62
6565;BME280;3316;44.118;27.258;2023-06-04T10:32:35;101658.66;;;27.53;39.11
6565;BME280;3316;44.118;27.258;2023-06-04T10:35:04;101660.31;;;27.42;35.90
6565;BME280;3316;44.118;27.258;2023-06-04T10:37:35;101664.09;;;27.80;35.69
6565;BME280;3316;44.118;27.258;2023-06-04T10:40:01;101635.13;;;27.13;36.00
6565;BME280;3316;44.118;27.258;2023-06-04T10:42:38;101645.41;;;26.92;37.56
6565;BME280;3316;44.118;27.258;2023-06-04T10:45:04;101666.34;;;26.89;37.68
6565;BME280;3316;44.118;27.258;2023-06-04T10:47:30;101658.91;;;26.78;38.13
6565;BME280;3316;44.118;27.258;2023-06-04T10:50:12;101643.41;;;26.82;37.83
6565;BME280;3316;44.118;27.258;2023-06-04T10:52:50;101654.97;;;27.26;37.12
6565;BME280;3316;44.118;27.258;2023-06-04T10:55:17;101649.56;;;27.54;36.80
6565;BME280;3316;44.118;27.258;2023-06-04T10:57:55;101650.53;;;26.97;38.75
6565;BME280;3316;44.118;27.258;2023-06-04T11:00:21;101653.16;;;26.98;39.61
6565;BME280;3316;44.118;27.258;2023-06-04T11:03:06;101651.09;;;26.44;40.07
6565;BME280;3316;44.118;27.258;2023-06-04T11:05:36;101622.38;;;26.13;39.23
6565;BME280;3316;44.118;27.258;2023-06-04T11:08:04;101642.41;;;26.39;39.36
6565;BME280;3316;44.118;27.258;2023-06-04T11:10:35;101653.78;;;26.44;39.01
6565;BME280;3316;44.118;27.258;2023-06-04T11:13:02;101637.63;;;26.58;38.06
6565;BME280;3316;44.118;27.258;2023-06-04T11:15:46;101633.59;;;26.65;38.53
6565;BME280;3316;44.118;27.258;2023-06-04T11:18:20;101648.19;;;26.33;37.58
6565;BME280;3316;44.118;27.258;2023-06-04T11:20:47;101660.13;;;26.43;37.30
6565;BME280;3316;44.118;27.258;2023-06-04T11:23:14;101644.44;;;26.79;37.21
6565;BME280;3316;44.118;27.258;2023-06-04T11:25:41;101656.19;;;26.78;37.40
6565;BME280;3316;44.118;27.258;2023-06-04T11:28:14;101643.56;;;26.79;36.45
6565;BME280;3316;44.118;27.258;2023-06-04T11:30:41;101636.66;;;27.17;35.65
6565;BME280;3316;44.118;27.258;2023-06-04T11:33:06;101654.69;;;27.45;35.38
6565;BME280;3316;44.118;27.258;2023-06-04T11:35:39;101647.06;;;27.23;35.35
6565;BME280;3316;44.118;27.258;2023-06-04T11:38:05;101617.44;;;27.21;35.64
6565;BME280;3316;44.118;27.258;2023-06-04T11:40:30;101637.72;;;27.14;35.65
6565;BME280;3316;44.118;27.258;2023-06-04T11:42:56;101645.63;;;27.03;35.83
6565;BME280;3316;44.118;27.258;2023-06-04T11:45:22;101646.22;;;27.37;36.28
6565;BME280;3316;44.118;27.258;2023-06-04T11:47:57;101648.91;;;26.94;38.87
6565;BME280;3316;44.118;27.258;2023-06-04T11:50:26;101640.38;;;26.72;38.96
6565;BME280;3316;44.118;27.258;2023-06-04T11:52:52;101620.06;;;26.51;39.59
6565;BME280;3316;44.118;27.258;2023-06-04T11:55:18;101621.91;;;26.51;38.62
6565;BME280;3316;44.118;27.258;2023-06-04T11:57:47;101637.72;;;27.14;37.93
6565;BME280;3316;44.118;27.258;2023-06-04T12:00:14;101637.19;;;27.64;36.48
6565;BME280;3316;44.118;27.258;2023-06-04T12:03:00;101638.34;;;28.01;36.91
6565;BME280;3316;44.118;27.258;2023-06-04T12:05:29;101637.38;;;27.75;37.13
6565;BME280;3316;44.118;27.258;2023-06-04T12:10:37;101620.16;;;26.93;38.64
6565;BME280;3316;44.118;27.258;2023-06-04T12:13:03;101632.78;;;26.93;38.85
6565;BME280;3316;44.118;27.258;2023-06-04T12:15:28;101607.50;;;27.08;38.98
6565;BME280;3316;44.118;27.258;2023-06-04T12:17:54;101619.00;;;26.97;39.53
6565;BME280;3316;44.118;27.258;2023-06-04T12:20:39;101614.44;;;27.12;38.68
6565;BME280;3316;44.118;27.258;2023-06-04T12:23:06;101622.75;;;27.37;38.92
6565;BME280;3316;44.118;27.258;2023-06-04T12:25:33;101613.47;;;27.41;38.63
6565;BME280;3316;44.118;27.258;2023-06-04T12:27:59;101625.94;;;27.01;39.37
6565;BME280;3316;44.118;27.258;2023-06-04T12:30:39;101622.28;;;27.02;39.80
6565;BME280;3316;44.118;27.258;2023-06-04T12:33:05;101593.53;;;26.43;39.82
6565;BME280;3316;44.118;27.258;2023-06-04T12:35:30;101616.88;;;27.02;39.16
6565;BME280;3316;44.118;27.258;2023-06-04T12:37:56;101614.34;;;27.27;39.30
6565;BME280;3316;44.118;27.258;2023-06-04T12:40:21;101612.13;;;27.48;38.42
6565;BME280;3316;44.118;27.258;2023-06-04T12:42:50;101618.41;;;27.06;39.29
6565;BME280;3316;44.118;27.258;2023-06-04T12:45:15;101613.22;;;26.89;38.38
6565;BME280;3316;44.118;27.258;2023-06-04T12:47:42;101612.22;;;26.90;37.48
6565;BME280;3316;44.118;27.258;2023-06-04T12:50:08;101614.69;;;26.65;37.64
6565;BME280;3316;44.118;27.258;2023-06-04T12:52:33;101601.25;;;26.50;37.36
6565;BME280;3316;44.118;27.258;2023-06-04T12:54:59;101593.63;;;26.86;36.96
6565;BME280;3316;44.118;27.258;2023-06-04T12:57:24;101609.66;;;27.03;36.59
6565;BME280;3316;44.118;27.258;2023-06-04T12:59:50;101616.28;;;27.11;36.98
6565;BME280;3316;44.118;27.258;2023-06-04T13:02:15;101607.22;;;27.26;36.67
6565;BME280;3316;44.118;27.258;2023-06-04T13:04:41;101597.38;;;27.40;37.53
6565;BME280;3316;44.118;27.258;2023-06-04T13:07:08;101603.25;;;27.18;38.68
6565;BME280;3316;44.118;27.258;2023-06-04T13:09:33;101577.88;;;27.20;36.80